Time;durP1;ratioP1;P1;durP2;ratioP2;P2;SDS_P1;SDS_P2;PMS_P1;PMS_P2;Temp;Humidity;BMP_temperature;BMP_pressure;BME280_temperature;BME280_humidity;BME280_pressure;Samples;Min_cycle;Max_cycle;Signal;HPM_P1;HPM_P2
2022/05/01 00:01:16;;;;;;;1.50;1.40;;;12.60;99.90;;;;;;5065433;28;20477;-64
2022/05/01 00:03:47;;;;;;;1.47;1.37;;;12.70;99.90;;;;;;5064444;28;20549;-64
2022/05/01 00:06:19;;;;;;;1.83;1.73;;;12.70;99.90;;;;;;5069336;28;20484;-65
2022/05/01 00:08:50;;;;;;;3.10;2.80;;;12.60;99.90;;;;;;5065639;28;20472;-66
2022/05/01 00:11:23;;;;;;;1.73;1.40;;;12.40;99.90;;;;;;5062342;28;20455;-66
2022/05/01 00:13:55;;;;;;;2.10;1.30;;;12.40;99.90;;;;;;5069200;28;20857;-64
2022/05/01 00:16:25;;;;;;;4.00;1.90;;;12.40;99.90;;;;;;5065959;28;20464;-65
2022/05/01 00:18:57;;;;;;;2.67;1.43;;;12.40;99.90;;;;;;5068484;28;20448;-64
2022/05/01 00:21:28;;;;;;;1.67;1.43;;;12.40;99.90;;;;;;5063084;28;20464;-65
2022/05/01 00:23:59;;;;;;;2.13;2.00;;;12.50;99.90;;;;;;5060506;28;20489;-64
2022/05/01 00:26:32;;;;;;;2.00;1.73;;;12.70;99.90;;;;;;5063930;28;20459;-65
2022/05/01 00:29:04;;;;;;;2.17;1.97;;;12.70;99.90;;;;;;5061608;28;20471;-65
2022/05/01 00:31:35;;;;;;;3.07;2.00;;;12.80;99.90;;;;;;5061832;28;20456;-65
2022/05/01 00:36:53;;;;;;;2.63;2.07;;;13.30;99.90;;;;;;5069297;28;20469;-65
2022/05/01 00:39:24;;;;;;;1.47;1.37;;;13.30;99.90;;;;;;5066081;28;20459;-65
2022/05/01 00:41:56;;;;;;;2.57;1.43;;;13.30;99.90;;;;;;5067305;28;20455;-66
2022/05/01 00:44:27;;;;;;;2.43;1.53;;;13.40;99.90;;;;;;5065180;28;20499;-65
2022/05/01 00:46:59;;;;;;;2.00;1.80;;;13.60;99.90;;;;;;5067630;28;20475;-66
2022/05/01 00:49:30;;;;;;;2.37;2.17;;;13.70;99.90;;;;;;5062203;28;20479;-66
2022/05/01 00:52:02;;;;;;;2.47;2.00;;;14.00;99.90;;;;;;5067121;28;20482;-66
2022/05/01 00:54:34;;;;;;;2.50;2.10;;;14.10;99.90;;;;;;5063999;28;20478;-67
2022/05/01 00:57:09;;;;;;;2.40;2.10;;;14.10;99.90;;;;;;5066735;28;20959;-66
2022/05/01 00:59:41;;;;;;;2.23;1.73;;;14.10;99.90;;;;;;5064170;28;20451;-66
2022/05/01 01:02:13;;;;;;;2.17;1.53;;;14.30;99.90;;;;;;5063590;28;20916;-65
2022/05/01 01:04:44;;;;;;;2.53;1.97;;;14.20;99.90;;;;;;5060990;28;20792;-65
2022/05/01 01:07:15;;;;;;;1.87;1.73;;;14.20;99.90;;;;;;5063491;28;20482;-65
2022/05/01 01:09:45;;;;;;;2.87;2.17;;;14.20;99.90;;;;;;5069536;28;20464;-66
2022/05/01 01:15:13;;;;;;;2.10;1.90;;;14.00;99.90;;;;;;5062153;28;20498;-67
2022/05/01 01:17:46;;;;;;;1.37;1.27;;;13.90;99.90;;;;;;5061034;28;20456;-67
2022/05/01 01:20:21;;;;;;;2.90;1.50;;;13.80;99.90;;;;;;5062203;28;20470;-66
2022/05/01 01:22:55;;;;;;;1.73;1.33;;;13.80;99.90;;;;;;5057834;28;20460;-67
2022/05/01 01:25:29;;;;;;;2.10;1.40;;;13.60;99.90;;;;;;5066445;28;20507;-67
2022/05/01 01:28:02;;;;;;;2.17;1.40;;;13.70;99.90;;;;;;5063014;28;20796;-66
2022/05/01 01:33:21;;;;;;;1.50;1.40;;;13.60;99.90;;;;;;5059122;28;20553;-65
2022/05/01 01:35:53;;;;;;;2.13;2.03;;;13.60;99.90;;;;;;5061338;28;20484;-65
2022/05/01 01:38:25;;;;;;;7.60;2.03;;;13.50;99.90;;;;;;5061027;28;20460;-64
2022/05/01 01:40:58;;;;;;;3.10;1.90;;;13.40;99.90;;;;;;5061804;28;20456;-64
2022/05/01 01:43:31;;;;;;;2.60;2.40;;;13.10;99.90;;;;;;5060774;28;20494;-64
2022/05/01 01:46:03;;;;;;;2.27;2.10;;;12.90;99.90;;;;;;5061714;28;20460;-66
2022/05/01 01:48:34;;;;;;;2.40;2.10;;;12.80;99.90;;;;;;5061740;28;20441;-64
2022/05/01 01:51:06;;;;;;;1.70;1.60;;;12.70;99.90;;;;;;5062685;28;20461;-64
2022/05/01 01:53:39;;;;;;;2.13;1.80;;;12.60;99.90;;;;;;5063646;28;20457;-64
2022/05/01 01:56:10;;;;;;;2.00;1.90;;;12.60;99.90;;;;;;5062698;28;20448;-64
2022/05/01 01:58:42;;;;;;;2.20;1.57;;;12.60;99.90;;;;;;5061323;28;20527;-64
2022/05/01 02:01:13;;;;;;;1.80;1.70;;;12.50;99.90;;;;;;5060577;28;20460;-65
2022/05/01 02:03:44;;;;;;;1.77;1.60;;;12.40;99.90;;;;;;5055707;28;20452;-64
2022/05/01 02:06:15;;;;;;;2.13;1.80;;;12.30;99.90;;;;;;5061789;28;20990;-63
2022/05/01 02:08:47;;;;;;;1.83;1.73;;;12.40;99.90;;;;;;5061697;28;20515;-65
2022/05/01 02:11:18;;;;;;;2.00;1.53;;;12.60;99.90;;;;;;5061550;28;20862;-64
2022/05/01 02:13:49;;;;;;;2.57;2.37;;;12.60;99.90;;;;;;5058884;28;20491;-64
2022/05/01 02:16:20;;;;;;;2.77;2.57;;;12.60;99.90;;;;;;5060050;28;20482;-65
2022/05/01 02:18:50;;;;;;;3.20;1.90;;;12.70;99.90;;;;;;5061024;28;20462;-64
2022/05/01 02:21:36;;;;;;;2.27;1.90;;;12.80;99.90;;;;;;5061345;28;20460;-64
2022/05/01 02:24:10;;;;;;;2.37;2.17;;;12.80;99.90;;;;;;5060042;28;20503;-64
2022/05/01 02:26:41;;;;;;;2.43;2.23;;;12.80;99.90;;;;;;5060015;28;20472;-64
2022/05/01 02:29:12;;;;;;;3.07;1.83;;;12.90;99.90;;;;;;5060797;28;20467;-64
2022/05/01 02:31:46;;;;;;;2.63;2.43;;;13.00;99.90;;;;;;5060445;28;20507;-64
2022/05/01 02:34:16;;;;;;;4.60;2.10;;;13.00;99.90;;;;;;5060597;28;20465;-64
2022/05/01 02:36:48;;;;;;;3.40;2.30;;;13.00;99.90;;;;;;5061120;28;20469;-64
2022/05/01 02:39:20;;;;;;;2.60;2.40;;;12.90;99.90;;;;;;5060769;28;20467;-63
2022/05/01 02:41:51;;;;;;;2.77;2.23;;;12.70;99.90;;;;;;5059696;28;20479;-63
2022/05/01 02:44:22;;;;;;;2.73;2.20;;;12.60;99.90;;;;;;5059449;28;20479;-64
2022/05/01 02:46:54;;;;;;;4.30;2.67;;;12.40;99.90;;;;;;5061012;28;20850;-64
2022/05/01 02:49:25;;;;;;;2.57;2.20;;;12.30;99.90;;;;;;5060901;28;20467;-64
2022/05/01 02:51:56;;;;;;;3.03;2.63;;;12.20;99.90;;;;;;5059852;28;20476;-63
2022/05/01 02:54:29;;;;;;;3.20;2.90;;;12.10;99.90;;;;;;5059337;28;20491;-64
2022/05/01 02:56:59;;;;;;;3.63;2.70;;;12.10;99.90;;;;;;5061325;28;20459;-64
2022/05/01 02:59:30;;;;;;;3.50;2.50;;;12.10;99.90;;;;;;5062280;28;20493;-64
2022/05/01 03:02:01;;;;;;;2.80;2.60;;;12.00;99.90;;;;;;5061711;28;20447;-66
2022/05/01 03:04:33;;;;;;;3.80;2.63;;;11.90;99.90;;;;;;5062100;28;20479;-65
2022/05/01 03:07:07;;;;;;;2.90;2.60;;;11.90;99.90;;;;;;5060469;28;20461;-65
2022/05/01 03:09:39;;;;;;;3.50;3.20;;;11.90;99.90;;;;;;5063819;28;20468;-66
2022/05/01 03:12:12;;;;;;;3.90;3.23;;;11.80;99.90;;;;;;5061538;28;20614;-64
2022/05/01 03:14:43;;;;;;;6.50;3.67;;;11.70;99.90;;;;;;5063598;28;20967;-65
2022/05/01 03:17:14;;;;;;;4.23;3.83;;;11.70;99.90;;;;;;5065942;28;20455;-63
2022/05/01 03:22:33;;;;;;;4.30;3.67;;;11.70;99.90;;;;;;5059296;28;20487;-64
2022/05/01 03:25:05;;;;;;;3.30;3.00;;;11.60;99.90;;;;;;5065036;28;20487;-63
2022/05/01 03:27:36;;;;;;;4.50;4.10;;;11.70;99.90;;;;;;5064102;28;20477;-64
2022/05/01 03:30:19;;;;;;;4.60;3.70;;;11.80;99.90;;;;;;5064600;28;20479;-63
2022/05/01 03:32:50;;;;;;;5.67;4.20;;;11.80;99.90;;;;;;5065502;28;20482;-64
2022/05/01 03:35:21;;;;;;;4.27;3.87;;;11.80;99.90;;;;;;5063073;28;20470;-64
2022/05/01 03:37:52;;;;;;;4.60;4.20;;;11.70;99.90;;;;;;5066886;28;20475;-64
2022/05/01 03:40:24;;;;;;;4.97;4.57;;;11.70;99.90;;;;;;5061325;28;20476;-64
2022/05/01 03:42:55;;;;;;;5.27;4.67;;;11.60;99.90;;;;;;5068314;28;20978;-64
2022/05/01 03:45:26;;;;;;;6.70;6.10;;;11.60;99.90;;;;;;5062123;28;20496;-64
2022/05/01 03:47:57;;;;;;;7.43;6.80;;;11.70;99.90;;;;;;5064260;28;20449;-65
2022/05/01 03:50:28;;;;;;;7.67;6.97;;;11.60;99.90;;;;;;5064576;28;20921;-64
2022/05/01 03:52:59;;;;;;;8.60;7.80;;;11.50;99.90;;;;;;5064548;28;20462;-64
2022/05/01 03:55:33;;;;;;;8.70;7.80;;;11.40;99.90;;;;;;5064328;28;20465;-64
2022/05/01 03:58:05;;;;;;;9.30;7.63;;;11.40;99.90;;;;;;5063469;28;20462;-64
2022/05/01 04:00:36;;;;;;;7.50;6.80;;;11.40;99.90;;;;;;5062257;28;21064;-64
2022/05/01 04:03:07;;;;;;;7.93;6.90;;;11.30;99.90;;;;;;5064214;28;20509;-64
2022/05/01 04:05:37;;;;;;;8.20;7.47;;;11.40;99.90;;;;;;5063346;28;20484;-64
2022/05/01 04:08:10;;;;;;;8.33;7.60;;;11.40;99.90;;;;;;5063845;28;20465;-64
2022/05/01 04:10:43;;;;;;;13.53;7.37;;;11.40;99.90;;;;;;5064121;28;20564;-64
2022/05/01 04:13:15;;;;;;;8.77;7.97;;;11.30;99.90;;;;;;5063638;28;20939;-64
2022/05/01 04:15:46;;;;;;;8.00;6.90;;;11.20;99.90;;;;;;5062546;28;21141;-64
2022/05/01 04:18:17;;;;;;;7.93;7.13;;;11.10;99.90;;;;;;5062018;28;20464;-64
2022/05/01 04:20:47;;;;;;;7.60;6.90;;;11.10;99.90;;;;;;5062528;28;20486;-64
2022/05/01 04:23:18;;;;;;;9.23;7.93;;;11.00;99.90;;;;;;5061553;28;20773;-64
2022/05/01 04:25:51;;;;;;;9.77;8.87;;;11.00;99.90;;;;;;5061893;28;20535;-64
2022/05/01 04:28:22;;;;;;;9.43;8.63;;;11.00;99.90;;;;;;5060380;28;20464;-64
2022/05/01 04:30:53;;;;;;;9.70;8.70;;;11.00;99.90;;;;;;5061325;28;20538;-64
2022/05/01 04:33:25;;;;;;;8.97;8.17;;;11.00;99.90;;;;;;5061015;28;20904;-64
2022/05/01 04:35:56;;;;;;;9.93;8.77;;;10.80;99.90;;;;;;5060958;28;20505;-63
2022/05/01 04:38:27;;;;;;;9.80;8.80;;;10.70;99.90;;;;;;5061139;28;20946;-64
2022/05/01 04:41:00;;;;;;;9.63;8.37;;;10.70;99.90;;;;;;5062452;28;20457;-64
2022/05/01 04:43:31;;;;;;;10.43;9.50;;;10.60;99.90;;;;;;5061329;28;20491;-63
2022/05/01 04:46:01;;;;;;;10.47;9.37;;;10.60;99.90;;;;;;5058571;28;20496;-63
2022/05/01 04:48:32;;;;;;;13.63;10.53;;;10.60;99.90;;;;;;5061645;28;20464;-64
2022/05/01 04:51:05;;;;;;;10.67;9.57;;;10.50;99.90;;;;;;5060462;28;20460;-63
2022/05/01 04:53:35;;;;;;;9.90;9.00;;;10.50;99.90;;;;;;5058338;28;20464;-64
2022/05/01 04:58:55;;;;;;;9.80;8.90;;;10.30;99.90;;;;;;5056595;28;20471;-64
2022/05/01 05:01:26;;;;;;;10.37;9.37;;;10.30;99.90;;;;;;5053116;28;20460;-64
2022/05/01 05:03:58;;;;;;;12.43;11.13;;;10.20;99.90;;;;;;5055547;28;20453;-64
2022/05/01 05:06:29;;;;;;;11.13;10.10;;;10.20;99.90;;;;;;5055689;28;20495;-64
2022/05/01 05:11:49;;;;;;;10.67;9.77;;;10.30;99.90;;;;;;5054854;28;20476;-64
2022/05/01 05:14:20;;;;;;;9.50;8.60;;;10.30;99.90;;;;;;5056349;28;20487;-64
2022/05/01 05:16:51;;;;;;;10.70;9.77;;;10.40;99.90;;;;;;5055862;28;20463;-64
2022/05/01 05:19:22;;;;;;;12.33;11.13;;;10.40;99.90;;;;;;5056274;28;20464;-64
2022/05/01 05:21:53;;;;;;;11.33;10.23;;;10.60;99.90;;;;;;5056110;28;20460;-64
2022/05/01 05:24:29;;;;;;;12.57;11.33;;;10.60;99.90;;;;;;5055536;28;20448;-64
2022/05/01 05:27:01;;;;;;;12.63;11.60;;;10.70;99.90;;;;;;5055669;28;20552;-64
2022/05/01 05:29:33;;;;;;;13.93;11.97;;;10.70;99.90;;;;;;5055611;28;20463;-64
2022/05/01 05:32:04;;;;;;;13.47;12.07;;;10.70;99.90;;;;;;5055904;28;20612;-64
2022/05/01 05:34:35;;;;;;;14.67;13.17;;;10.70;99.90;;;;;;5058240;28;20461;-64
2022/05/01 05:37:06;;;;;;;14.53;13.23;;;10.80;99.90;;;;;;5062250;28;20540;-64
2022/05/01 05:39:37;;;;;;;14.47;13.17;;;10.70;99.90;;;;;;5060869;28;20460;-64
2022/05/01 05:42:10;;;;;;;14.77;13.27;;;10.70;99.90;;;;;;5062198;28;20456;-64
2022/05/01 05:44:43;;;;;;;15.23;13.60;;;10.70;99.90;;;;;;5059069;28;20465;-64
2022/05/01 05:47:13;;;;;;;14.50;13.00;;;10.80;99.90;;;;;;5059802;28;20502;-64
2022/05/01 05:49:44;;;;;;;15.10;13.70;;;10.70;99.90;;;;;;5058762;28;20464;-64
2022/05/01 05:52:22;;;;;;;15.87;14.23;;;10.70;99.90;;;;;;5054882;28;20536;-64
2022/05/01 05:54:53;;;;;;;18.47;14.47;;;10.70;99.90;;;;;;5053985;28;20468;-64
2022/05/01 05:57:25;;;;;;;15.93;14.43;;;10.60;99.90;;;;;;5054857;28;20497;-64
2022/05/01 05:59:56;;;;;;;14.80;13.47;;;10.60;99.90;;;;;;5054954;28;20539;-64
2022/05/01 06:02:27;;;;;;;16.50;14.77;;;10.60;99.90;;;;;;5055534;28;20444;-64
2022/05/01 06:04:59;;;;;;;15.20;13.70;;;10.60;99.90;;;;;;5055097;28;20486;-64
2022/05/01 06:07:30;;;;;;;16.03;14.37;;;10.60;99.90;;;;;;5055101;28;20496;-64
2022/05/01 06:10:01;;;;;;;16.43;14.83;;;10.60;99.90;;;;;;5053219;28;20464;-63
2022/05/01 06:12:33;;;;;;;17.53;14.50;;;10.60;99.90;;;;;;5054516;28;20578;-63
2022/05/01 06:15:06;;;;;;;15.57;14.17;;;10.70;99.90;;;;;;5053194;28;20493;-63
2022/05/01 06:17:37;;;;;;;15.73;14.13;;;10.60;99.90;;;;;;5054363;28;21494;-63
2022/05/01 06:20:09;;;;;;;16.40;14.70;;;10.70;99.90;;;;;;5054883;28;20459;-63
2022/05/01 06:22:40;;;;;;;16.77;13.90;;;10.80;99.90;;;;;;5054626;28;20457;-63
2022/05/01 06:25:12;;;;;;;14.53;13.13;;;10.70;99.90;;;;;;5053901;28;20474;-63
2022/05/01 06:27:44;;;;;;;14.53;13.20;;;10.70;99.90;;;;;;5059896;28;20572;-63
2022/05/01 06:30:15;;;;;;;15.77;13.77;;;10.90;99.90;;;;;;5056121;28;20456;-64
2022/05/01 06:32:47;;;;;;;16.23;13.73;;;10.90;99.90;;;;;;5053942;28;20472;-64
2022/05/01 06:35:18;;;;;;;14.97;13.57;;;10.90;99.90;;;;;;5054087;28;20505;-64
2022/05/01 06:37:49;;;;;;;15.70;14.20;;;10.90;99.90;;;;;;5054769;28;22116;-63
2022/05/01 06:40:20;;;;;;;14.57;13.27;;;10.80;99.90;;;;;;5053360;28;20476;-63
2022/05/01 06:42:52;;;;;;;15.93;14.33;;;10.90;99.90;;;;;;5054345;28;20460;-63
2022/05/01 06:45:23;;;;;;;14.23;12.93;;;10.90;99.90;;;;;;5055531;28;20476;-63
2022/05/01 06:47:54;;;;;;;15.53;14.13;;;10.80;99.90;;;;;;5056242;28;20512;-63
2022/05/01 06:50:25;;;;;;;14.40;12.40;;;10.90;99.90;;;;;;5057485;28;20456;-64
2022/05/01 06:52:56;;;;;;;14.63;13.07;;;11.00;99.90;;;;;;5057262;28;20538;-63
2022/05/01 06:55:27;;;;;;;14.60;13.10;;;11.00;99.90;;;;;;5060266;28;20467;-63
2022/05/01 06:57:59;;;;;;;14.87;13.47;;;10.90;99.90;;;;;;5060715;28;20478;-63
2022/05/01 07:00:30;;;;;;;14.33;13.03;;;10.90;99.90;;;;;;5058211;28;20974;-64
2022/05/01 07:03:01;;;;;;;12.10;11.10;;;11.00;99.90;;;;;;5058645;28;20862;-64
2022/05/01 07:05:32;;;;;;;12.37;11.17;;;11.00;99.90;;;;;;5061980;28;20453;-63
2022/05/01 07:08:03;;;;;;;12.20;11.00;;;11.00;99.90;;;;;;5063933;28;20995;-63
2022/05/01 07:10:34;;;;;;;11.87;9.83;;;11.00;99.90;;;;;;5062521;28;20505;-63
2022/05/01 07:13:06;;;;;;;10.37;9.43;;;11.10;99.90;;;;;;5064104;28;20891;-63
2022/05/01 07:15:38;;;;;;;10.97;9.93;;;11.10;99.90;;;;;;5063656;28;20502;-63
2022/05/01 07:18:09;;;;;;;12.53;9.73;;;11.00;99.90;;;;;;5063373;28;20506;-64
2022/05/01 07:20:40;;;;;;;11.07;10.13;;;11.00;99.90;;;;;;5063444;28;20456;-64
2022/05/01 07:23:10;;;;;;;11.10;10.03;;;11.00;99.90;;;;;;5060980;28;20456;-63
2022/05/01 07:25:41;;;;;;;11.30;10.30;;;11.00;99.90;;;;;;5062962;28;20493;-63
2022/05/01 07:28:14;;;;;;;11.90;10.80;;;11.00;99.90;;;;;;5060867;28;20488;-63
2022/05/01 07:30:45;;;;;;;10.70;9.60;;;10.90;99.90;;;;;;5057600;28;20476;-63
2022/05/01 07:33:15;;;;;;;10.13;9.23;;;10.90;99.90;;;;;;5057586;28;20460;-63
2022/05/01 07:35:46;;;;;;;11.80;9.60;;;10.90;99.90;;;;;;5058315;28;20470;-63
2022/05/01 07:38:17;;;;;;;10.73;9.83;;;10.80;99.90;;;;;;5055821;28;20535;-63
2022/05/01 07:40:54;;;;;;;10.33;9.30;;;10.80;99.90;;;;;;5057629;28;20543;-63
2022/05/01 07:43:27;;;;;;;9.93;9.10;;;10.80;99.90;;;;;;5057019;28;20518;-63
2022/05/01 07:45:57;;;;;;;9.03;8.13;;;10.80;99.90;;;;;;5057651;28;20459;-63
2022/05/01 07:48:28;;;;;;;7.80;6.83;;;10.70;99.90;;;;;;5056973;28;20513;-63
2022/05/01 07:50:59;;;;;;;7.40;6.70;;;10.80;99.90;;;;;;5060104;28;20561;-62
2022/05/01 07:53:30;;;;;;;7.17;5.80;;;10.80;99.90;;;;;;5055833;28;20494;-63
2022/05/01 07:56:01;;;;;;;7.77;6.97;;;10.80;99.90;;;;;;5057302;28;20464;-63
2022/05/01 07:58:34;;;;;;;7.10;6.00;;;10.70;99.90;;;;;;5056122;28;20479;-63
2022/05/01 08:01:05;;;;;;;6.00;5.40;;;10.80;99.90;;;;;;5056553;28;20488;-63
2022/05/01 08:06:23;;;;;;;5.90;5.40;;;10.80;99.90;;;;;;5055100;28;20530;-63
2022/05/01 08:08:54;;;;;;;4.67;4.27;;;10.80;99.90;;;;;;5061308;28;20492;-63
2022/05/01 08:11:25;;;;;;;4.67;4.20;;;10.70;99.90;;;;;;5063429;28;20483;-63
2022/05/01 08:13:58;;;;;;;4.50;4.10;;;10.80;99.90;;;;;;5062648;28;20503;-63
2022/05/01 08:16:29;;;;;;;4.13;3.83;;;10.90;99.90;;;;;;5062567;28;20528;-63
2022/05/01 08:21:47;;;;;;;4.83;4.43;;;10.90;99.90;;;;;;5062121;28;20452;-63
2022/05/01 08:24:18;;;;;;;5.53;4.17;;;10.80;99.90;;;;;;5069453;28;20457;-63
2022/05/01 08:26:49;;;;;;;6.70;4.17;;;10.80;99.90;;;;;;5052987;28;20962;-63
2022/05/01 08:29:21;;;;;;;4.37;3.97;;;10.90;99.90;;;;;;5061497;28;20492;-63
2022/05/01 08:31:52;;;;;;;5.40;4.80;;;10.90;99.90;;;;;;5056509;28;20480;-64
2022/05/01 08:34:23;;;;;;;5.03;4.63;;;10.90;99.90;;;;;;5055919;28;20476;-63
2022/05/01 08:36:54;;;;;;;5.23;4.77;;;10.90;99.90;;;;;;5056981;28;20457;-63
2022/05/01 08:39:24;;;;;;;4.47;4.07;;;10.90;99.90;;;;;;5054908;28;20472;-63
2022/05/01 08:41:55;;;;;;;4.07;3.77;;;10.90;99.90;;;;;;5055854;28;20475;-64
2022/05/01 08:44:34;;;;;;;5.00;4.17;;;10.80;99.90;;;;;;5055227;28;20483;-63
2022/05/01 08:47:24;;;;;;;4.43;3.73;;;10.70;99.90;;;;;;5055938;28;20468;-64
2022/05/01 08:49:58;;;;;;;4.03;3.50;;;10.70;99.90;;;;;;5055427;28;20576;-64
2022/05/01 08:52:29;;;;;;;4.67;4.27;;;10.60;99.90;;;;;;5058396;28;20506;-64
2022/05/01 08:55:01;;;;;;;8.10;4.20;;;10.60;99.90;;;;;;5055223;28;20460;-64
2022/05/01 08:57:33;;;;;;;5.23;4.20;;;10.60;99.90;;;;;;5055937;28;20467;-64
2022/05/01 09:00:07;;;;;;;4.80;4.37;;;10.60;99.90;;;;;;5054445;28;20461;-64
2022/05/01 09:02:38;;;;;;;5.17;4.40;;;10.60;99.90;;;;;;5056318;28;20474;-64
2022/05/01 09:05:11;;;;;;;5.17;4.67;;;10.60;99.90;;;;;;5059990;28;20460;-64
2022/05/01 09:07:42;;;;;;;5.10;4.60;;;10.60;99.90;;;;;;5059970;28;20480;-64
2022/05/01 09:10:15;;;;;;;5.63;5.20;;;10.60;99.90;;;;;;5059841;28;20445;-64
2022/05/01 09:12:50;;;;;;;5.20;4.70;;;10.70;99.90;;;;;;5061559;28;20456;-63
2022/05/01 09:15:37;;;;;;;4.80;4.30;;;10.70;99.90;;;;;;5061513;28;20491;-64
2022/05/01 09:18:08;;;;;;;5.70;5.20;;;10.70;99.90;;;;;;5060693;28;20475;-64
2022/05/01 09:20:59;;;;;;;9.60;5.70;;;10.70;99.90;;;;;;5060672;28;20975;-64
2022/05/01 09:23:38;;;;;;;5.37;4.97;;;10.70;99.90;;;;;;5060348;28;20484;-64
2022/05/01 09:26:10;;;;;;;5.60;5.20;;;10.70;99.90;;;;;;5060947;28;20468;-64
2022/05/01 09:28:50;;;;;;;5.97;5.27;;;10.60;99.90;;;;;;5061508;28;20559;-64
2022/05/01 09:31:46;;;;;;;5.13;4.73;;;10.60;99.90;;;;;;5060351;28;20555;-64
2022/05/01 09:34:20;;;;;;;5.43;4.93;;;10.60;99.90;;;;;;5056315;28;20553;-64
2022/05/01 09:36:51;;;;;;;4.73;4.30;;;10.70;99.90;;;;;;5055321;28;20489;-64
2022/05/01 09:39:24;;;;;;;4.73;4.30;;;10.70;99.90;;;;;;5054297;28;20476;-63
2022/05/01 09:41:56;;;;;;;5.40;4.53;;;10.70;99.90;;;;;;5055332;28;20464;-64
2022/05/01 09:44:27;;;;;;;6.10;4.27;;;10.70;99.90;;;;;;5054525;28;20532;-64
2022/05/01 09:47:00;;;;;;;4.00;3.67;;;10.70;99.90;;;;;;5056042;28;20528;-64
2022/05/01 09:49:46;;;;;;;4.20;3.80;;;10.70;99.90;;;;;;5054600;28;20492;-64
2022/05/01 09:52:19;;;;;;;4.80;4.30;;;10.70;99.90;;;;;;5056454;28;20527;-64
2022/05/01 09:55:06;;;;;;;4.03;3.63;;;10.70;99.90;;;;;;5054149;28;20479;-64
2022/05/01 09:57:37;;;;;;;5.10;4.70;;;10.70;99.90;;;;;;5053799;28;20456;-64
2022/05/01 10:00:09;;;;;;;4.30;3.90;;;10.70;99.90;;;;;;5054412;28;20452;-64
2022/05/01 10:02:42;;;;;;;4.40;4.10;;;10.70;99.90;;;;;;5052347;28;20455;-64
2022/05/01 10:05:13;;;;;;;5.50;3.80;;;10.70;99.90;;;;;;5053680;28;20453;-64
2022/05/01 10:07:44;;;;;;;4.80;4.40;;;10.80;99.90;;;;;;5058383;28;20471;-64
2022/05/01 10:10:15;;;;;;;4.87;4.40;;;10.80;99.90;;;;;;5061283;28;20468;-63
2022/05/01 10:12:47;;;;;;;3.53;3.13;;;10.90;99.90;;;;;;5057558;28;20469;-64
2022/05/01 10:15:20;;;;;;;4.03;3.70;;;11.00;99.90;;;;;;5053997;28;20575;-64
2022/05/01 10:17:53;;;;;;;4.57;3.90;;;10.90;99.90;;;;;;5054720;28;20455;-64
2022/05/01 10:20:25;;;;;;;4.47;3.70;;;10.80;99.90;;;;;;5055754;28;20509;-64
2022/05/01 10:22:58;;;;;;;3.80;3.50;;;10.90;99.90;;;;;;5063034;28;20474;-64
2022/05/01 10:25:30;;;;;;;4.97;3.73;;;10.90;99.90;;;;;;5061550;28;20463;-64
2022/05/01 10:28:07;;;;;;;3.80;3.50;;;10.80;99.90;;;;;;5061310;28;20460;-63
2022/05/01 10:33:52;;;;;;;4.17;3.77;;;10.80;99.90;;;;;;5060613;28;20483;-64
2022/05/01 10:36:58;;;;;;;3.57;3.27;;;10.80;99.90;;;;;;5061262;28;20501;-64
2022/05/01 10:39:36;;;;;;;6.13;5.40;;;10.80;99.90;;;;;;5060364;28;20459;-64
2022/05/01 10:42:08;;;;;;;8.27;7.47;;;10.80;99.90;;;;;;5059924;28;20459;-64
2022/05/01 10:44:40;;;;;;;8.20;7.40;;;10.90;99.90;;;;;;5060916;28;20452;-63
2022/05/01 10:47:16;;;;;;;8.57;7.87;;;10.80;99.90;;;;;;5061304;28;20463;-64
2022/05/01 10:49:49;;;;;;;9.30;8.50;;;10.90;99.90;;;;;;5062028;28;20501;-63
2022/05/01 10:52:21;;;;;;;10.10;9.13;;;10.90;99.90;;;;;;5066749;28;20797;-64
2022/05/01 10:54:56;;;;;;;9.30;8.50;;;10.70;99.90;;;;;;5063534;28;20474;-64
2022/05/01 10:57:27;;;;;;;8.73;7.93;;;10.70;99.90;;;;;;5066144;28;20452;-64
2022/05/01 11:00:11;;;;;;;8.93;8.13;;;10.70;99.90;;;;;;5067685;28;22029;-63
2022/05/01 11:02:48;;;;;;;8.50;7.80;;;10.70;99.90;;;;;;5055895;28;20478;-64
2022/05/01 11:05:44;;;;;;;10.33;9.33;;;10.70;99.90;;;;;;5066858;28;20852;-64
2022/05/01 11:08:16;;;;;;;9.60;7.73;;;10.70;99.90;;;;;;5065665;28;20475;-64
2022/05/01 11:10:48;;;;;;;8.80;7.97;;;10.70;99.90;;;;;;5066463;28;20468;-64
2022/05/01 11:13:33;;;;;;;8.23;7.43;;;10.70;99.90;;;;;;5065937;28;20559;-64
2022/05/01 11:16:04;;;;;;;9.37;8.47;;;10.60;99.90;;;;;;5065668;28;20490;-64
2022/05/01 11:18:53;;;;;;;7.80;6.97;;;10.50;99.90;;;;;;5065290;28;20468;-64
2022/05/01 11:21:38;;;;;;;8.43;7.20;;;10.60;99.90;;;;;;5065484;28;20545;-63
2022/05/01 11:24:13;;;;;;;8.47;7.77;;;10.60;99.90;;;;;;5066033;28;20456;-63
2022/05/01 11:27:16;;;;;;;8.40;7.60;;;10.50;99.90;;;;;;5058779;28;20468;-63
2022/05/01 11:30:22;;;;;;;9.10;8.20;;;10.40;99.90;;;;;;5067109;28;20483;-63
2022/05/01 11:33:00;;;;;;;8.20;7.50;;;10.50;99.90;;;;;;5061745;28;20470;-63
2022/05/01 11:36:04;;;;;;;9.40;8.50;;;10.40;99.90;;;;;;5063112;28;21229;-63
2022/05/01 11:38:55;;;;;;;9.83;8.23;;;10.40;99.90;;;;;;5059904;28;20990;-63
2022/05/01 11:41:43;;;;;;;9.60;8.67;;;10.50;99.90;;;;;;5057052;28;20463;-64
2022/05/01 11:44:24;;;;;;;8.60;7.90;;;10.50;99.90;;;;;;5056371;28;21988;-64
2022/05/01 11:46:59;;;;;;;8.93;8.03;;;10.60;99.90;;;;;;5058175;28;20468;-63
2022/05/01 11:49:30;;;;;;;8.30;7.50;;;10.60;99.90;;;;;;5057542;28;20558;-63
2022/05/01 11:52:01;;;;;;;8.90;8.10;;;10.60;99.90;;;;;;5059278;28;20467;-64
2022/05/01 11:54:36;;;;;;;12.13;8.33;;;10.60;99.90;;;;;;5057911;28;20433;-63
2022/05/01 12:02:42;;;;;;;9.57;8.63;;;10.60;99.90;;;;;;5046419;28;20475;-64
2022/05/01 12:05:13;;;;;;;9.27;8.37;;;10.60;99.90;;;;;;5057423;28;20475;-64
2022/05/01 12:07:44;;;;;;;9.77;8.97;;;10.60;99.90;;;;;;5057901;28;20468;-63
2022/05/01 12:10:18;;;;;;;10.63;9.63;;;10.50;99.90;;;;;;5055561;28;20606;-64
2022/05/01 12:12:49;;;;;;;9.80;8.90;;;10.50;99.90;;;;;;5057776;28;20471;-64
2022/05/01 12:15:20;;;;;;;10.90;9.70;;;10.60;99.90;;;;;;5058561;28;20483;-63
2022/05/01 12:17:53;;;;;;;9.13;8.23;;;10.60;99.90;;;;;;5064057;28;20467;-63
2022/05/01 12:20:36;;;;;;;10.90;9.80;;;10.50;99.90;;;;;;5064636;28;20452;-63
2022/05/01 12:23:13;;;;;;;9.17;8.37;;;10.50;99.90;;;;;;5064318;28;20459;-64
2022/05/01 12:25:46;;;;;;;9.90;8.90;;;10.50;99.90;;;;;;5062816;28;20466;-64
2022/05/01 12:28:18;;;;;;;10.70;9.60;;;10.50;99.90;;;;;;5064119;28;20463;-64
2022/05/01 12:30:55;;;;;;;9.67;8.87;;;10.50;99.90;;;;;;5062483;28;20501;-63
2022/05/01 12:33:26;;;;;;;9.63;8.73;;;10.50;99.90;;;;;;5062472;28;20535;-64
2022/05/01 12:35:58;;;;;;;9.23;8.33;;;10.50;99.90;;;;;;5061669;28;20468;-63
2022/05/01 12:38:31;;;;;;;9.33;8.47;;;10.50;99.90;;;;;;5061375;28;20468;-64
2022/05/01 12:44:19;;;;;;;9.90;8.90;;;10.50;99.90;;;;;;5055256;28;20453;-64
2022/05/01 12:46:56;;;;;;;9.70;8.80;;;10.50;99.90;;;;;;5058367;28;20519;-64
2022/05/01 12:49:27;;;;;;;10.63;9.60;;;10.60;99.90;;;;;;5056640;28;20551;-64
2022/05/01 12:51:58;;;;;;;10.90;9.07;;;10.60;99.90;;;;;;5055763;28;20477;-64
2022/05/01 12:54:29;;;;;;;9.20;8.30;;;10.50;99.90;;;;;;5057392;28;20448;-63
2022/05/01 12:57:01;;;;;;;11.93;9.63;;;10.50;99.90;;;;;;5054776;28;20490;-64
2022/05/01 12:59:33;;;;;;;10.67;9.57;;;10.40;99.90;;;;;;5056177;28;20516;-64
2022/05/01 13:02:04;;;;;;;9.80;8.90;;;10.40;99.90;;;;;;5057416;28;21038;-64
2022/05/01 13:04:35;;;;;;;10.70;9.67;;;10.50;99.90;;;;;;5056990;28;20460;-64
2022/05/01 13:07:06;;;;;;;10.40;9.40;;;10.50;99.90;;;;;;5056579;28;20510;-64
2022/05/01 13:09:51;;;;;;;12.73;9.20;;;10.50;99.90;;;;;;5056093;28;20474;-64
2022/05/01 13:12:32;;;;;;;10.80;9.73;;;10.40;99.90;;;;;;5055073;28;20533;-64
2022/05/01 13:15:04;;;;;;;9.80;8.80;;;10.40;99.90;;;;;;5055280;28;20516;-63
2022/05/01 13:17:36;;;;;;;10.40;9.30;;;10.50;99.90;;;;;;5055891;28;20491;-64
2022/05/01 13:20:07;;;;;;;12.23;10.87;;;10.50;99.90;;;;;;5058975;28;20460;-64
2022/05/01 13:22:39;;;;;;;10.97;9.77;;;10.50;99.90;;;;;;5060367;28;20471;-63
2022/05/01 13:25:13;;;;;;;9.70;8.80;;;10.60;99.90;;;;;;5060387;28;20464;-63
2022/05/01 13:27:45;;;;;;;10.73;9.40;;;10.50;99.90;;;;;;5061440;28;20498;-63
2022/05/01 13:30:16;;;;;;;10.80;9.80;;;10.50;99.90;;;;;;5062897;28;20857;-64
2022/05/01 13:32:47;;;;;;;10.90;9.80;;;10.60;99.90;;;;;;5059704;28;21210;-63
2022/05/01 13:35:18;;;;;;;10.37;9.37;;;10.60;99.90;;;;;;5056894;28;20464;-63
2022/05/01 13:37:50;;;;;;;12.00;10.83;;;10.70;99.90;;;;;;5060480;28;20499;-64
2022/05/01 13:45:57;;;;;;;10.93;9.87;;;10.70;99.90;;;;;;5056725;28;20460;-63
2022/05/01 13:48:30;;;;;;;11.70;10.50;;;10.90;99.90;;;;;;5055005;28;20520;-63
2022/05/01 13:51:01;;;;;;;10.37;9.40;;;11.00;99.90;;;;;;5064726;28;20508;-63
2022/05/01 13:53:31;;;;;;;10.67;9.57;;;11.00;99.90;;;;;;5060008;28;20464;-62